createdAt,value
2019-03-01T00:01:25.318Z,10.30
2019-03-01T00:04:06.326Z,10.20
2019-03-01T00:06:49.629Z,10.20
2019-03-01T00:09:21.153Z,10.10
2019-03-01T00:12:21.659Z,10.00
2019-03-01T00:15:02.058Z,9.90
2019-03-01T00:17:42.393Z,9.80
2019-03-01T00:20:25.076Z,9.70
2019-03-01T00:23:05.143Z,9.60
2019-03-01T00:25:54.349Z,9.50
2019-03-01T00:28:28.777Z,9.40
2019-03-01T00:31:09.214Z,9.30
2019-03-01T00:34:05.205Z,9.20
2019-03-01T00:37:08.150Z,9.00
2019-03-01T00:39:54.516Z,9.00
2019-03-01T00:42:42.759Z,8.80
2019-03-01T00:45:11.225Z,9.00
2019-03-01T00:47:39.659Z,9.10
2019-03-01T00:50:10.237Z,9.10
2019-03-01T00:52:38.673Z,9.20
2019-03-01T00:55:08.370Z,9.30
2019-03-01T00:57:36.818Z,9.30
2019-03-01T01:00:08.354Z,9.40
2019-03-01T01:02:36.799Z,9.40
2019-03-01T01:05:06.827Z,9.50
2019-03-01T01:07:35.256Z,9.40
2019-03-01T01:10:04.437Z,9.30
2019-03-01T01:12:32.877Z,9.20
2019-03-01T01:15:01.331Z,9.20
2019-03-01T01:17:29.757Z,9.10
2019-03-01T01:19:58.207Z,9.00
2019-03-01T01:22:26.640Z,9.00
2019-03-01T01:24:55.101Z,9.00
2019-03-01T01:27:23.542Z,9.00
2019-03-01T01:29:51.982Z,9.00
2019-03-01T01:32:20.430Z,9.00
2019-03-01T01:34:48.873Z,9.00
2019-03-01T01:37:17.337Z,9.00
2019-03-01T01:39:45.850Z,9.10
2019-03-01T01:42:14.293Z,9.20
2019-03-01T01:44:42.732Z,9.20
2019-03-01T01:47:11.164Z,9.30
2019-03-01T01:49:39.612Z,9.30
2019-03-01T01:52:08.077Z,9.30
2019-03-01T01:54:36.582Z,9.30
2019-03-01T01:57:05.085Z,9.40
2019-03-01T01:59:33.533Z,9.40
2019-03-01T02:02:01.974Z,9.40
2019-03-01T02:04:30.416Z,9.40
2019-03-01T02:06:58.849Z,9.30
2019-03-01T02:09:27.369Z,9.30
2019-03-01T02:11:56.278Z,9.30
2019-03-01T02:14:24.726Z,9.30
2019-03-01T02:16:53.233Z,9.30
2019-03-01T02:19:21.756Z,9.30
2019-03-01T02:21:50.206Z,9.30
2019-03-01T02:24:18.640Z,9.20
2019-03-01T02:26:47.075Z,9.20
2019-03-01T02:29:15.525Z,9.30
2019-03-01T02:31:47.164Z,9.30
2019-03-01T02:34:15.610Z,9.40
2019-03-01T02:36:44.045Z,9.40
2019-03-01T02:39:12.496Z,9.40
2019-03-01T02:41:40.933Z,9.50
2019-03-01T02:44:09.374Z,9.40
2019-03-01T02:46:37.819Z,9.40
2019-03-01T02:49:06.329Z,9.40
2019-03-01T02:51:34.793Z,9.30
2019-03-01T02:54:03.233Z,9.40
2019-03-01T02:56:31.683Z,9.40
2019-03-01T02:59:00.132Z,9.40
2019-03-01T03:01:28.584Z,9.40
2019-03-01T03:03:57.018Z,9.50
2019-03-01T03:06:27.109Z,9.50
2019-03-01T03:08:55.549Z,9.50
2019-03-01T03:11:23.998Z,9.60
2019-03-01T03:13:52.435Z,9.60
2019-03-01T03:16:20.893Z,9.60
2019-03-01T03:18:49.319Z,9.60
2019-03-01T03:21:17.773Z,9.70
2019-03-01T03:23:46.208Z,9.60
2019-03-01T03:26:14.699Z,9.70
2019-03-01T03:28:43.170Z,9.70
2019-03-01T03:31:11.618Z,9.60
2019-03-01T03:33:40.106Z,9.60
2019-03-01T03:36:08.587Z,9.70
2019-03-01T03:38:37.096Z,9.60
2019-03-01T03:41:24.868Z,9.60
2019-03-01T03:43:53.309Z,9.70
2019-03-01T03:46:21.744Z,9.60
2019-03-01T03:48:50.190Z,9.60
2019-03-01T03:51:18.649Z,9.60
2019-03-01T03:53:47.154Z,9.60
2019-03-01T03:56:15.590Z,9.60
2019-03-01T03:58:44.040Z,9.70
2019-03-01T04:01:12.631Z,9.60
2019-03-01T04:03:41.077Z,9.70
2019-03-01T04:06:09.522Z,9.60
2019-03-01T04:08:37.952Z,9.60
2019-03-01T04:11:06.399Z,9.60
2019-03-01T04:13:34.838Z,9.60
2019-03-01T04:16:03.279Z,9.60
2019-03-01T04:18:31.724Z,9.60
2019-03-01T04:21:00.161Z,9.60
2019-03-01T04:23:28.674Z,9.60
2019-03-01T04:25:57.112Z,9.50
2019-03-01T04:28:25.544Z,9.50
2019-03-01T04:30:54.005Z,9.50
2019-03-01T04:33:22.429Z,9.50
2019-03-01T04:35:50.872Z,9.50
2019-03-01T04:38:19.317Z,9.50
2019-03-01T04:40:47.756Z,9.40
2019-03-01T04:43:16.201Z,9.50
2019-03-01T04:45:44.648Z,9.50
2019-03-01T04:48:13.091Z,9.50
2019-03-01T04:50:41.533Z,9.60
2019-03-01T04:53:09.964Z,9.60
2019-03-01T04:55:38.416Z,9.60
2019-03-01T04:58:06.846Z,9.70
2019-03-01T05:00:35.301Z,9.60
2019-03-01T05:03:03.737Z,9.60
2019-03-01T05:05:32.189Z,9.60
2019-03-01T05:08:00.625Z,9.70
2019-03-01T05:10:29.065Z,9.70
2019-03-01T05:12:57.513Z,9.80
2019-03-01T05:15:25.957Z,9.80
2019-03-01T05:17:54.399Z,9.80
2019-03-01T05:20:22.911Z,9.90
2019-03-01T05:22:51.349Z,9.90
2019-03-01T05:25:19.788Z,9.90
2019-03-01T05:27:48.249Z,9.90
2019-03-01T05:30:18.601Z,9.90
2019-03-01T05:32:47.045Z,9.90
2019-03-01T05:35:15.545Z,9.90
2019-03-01T05:37:44.079Z,9.90
2019-03-01T05:40:13.972Z,9.80
2019-03-01T05:42:42.419Z,9.90
2019-03-01T05:45:14.710Z,9.90
2019-03-01T05:47:43.160Z,9.90
2019-03-01T05:50:13.949Z,9.90
2019-03-01T05:52:42.405Z,9.90
2019-03-01T05:55:12.176Z,10.00
2019-03-01T05:58:18.444Z,10.20
2019-03-01T06:00:47.233Z,10.10
2019-03-01T06:03:24.679Z,10.10
2019-03-01T06:05:53.758Z,10.00
2019-03-01T06:08:40.476Z,10.00
2019-03-01T06:11:12.260Z,10.00
2019-03-01T06:14:07.951Z,9.90
2019-03-01T06:16:41.920Z,9.80
2019-03-01T06:19:31.469Z,9.80
2019-03-01T06:22:31.860Z,9.80
2019-03-01T06:25:09.030Z,9.70
2019-03-01T06:27:55.515Z,9.80
2019-03-01T06:30:33.020Z,9.80
2019-03-01T06:33:27.224Z,9.70
2019-03-01T06:36:04.672Z,9.80
2019-03-01T06:39:10.177Z,9.80
2019-03-01T06:41:59.369Z,9.90
2019-03-01T06:44:45.773Z,9.90
2019-03-01T06:47:38.323Z,10.00
2019-03-01T06:50:19.294Z,10.00
2019-03-01T06:52:47.868Z,9.90
2019-03-01T06:55:38.755Z,9.90
2019-03-01T06:58:09.972Z,9.80
2019-03-01T07:00:49.481Z,9.80
2019-03-01T07:03:18.209Z,9.70
2019-03-01T07:06:06.780Z,9.60
2019-03-01T07:08:42.381Z,9.70
2019-03-01T07:11:18.306Z,9.70
2019-03-01T07:14:01.013Z,9.70
2019-03-01T07:16:47.610Z,9.70
2019-03-01T07:19:16.165Z,9.70
2019-03-01T07:21:44.749Z,9.60
2019-03-01T07:24:13.377Z,9.60
2019-03-01T07:26:41.949Z,9.60
2019-03-01T07:29:10.435Z,9.70
2019-03-01T07:31:38.938Z,9.80
2019-03-01T07:34:07.380Z,9.80
2019-03-01T07:36:35.850Z,9.90
2019-03-01T07:39:07.601Z,9.90
2019-03-01T07:41:37.339Z,9.90
2019-03-01T07:44:09.062Z,10.00
2019-03-01T07:46:39.258Z,10.00
2019-03-01T07:49:07.771Z,10.10
2019-03-01T07:51:38.532Z,10.10
2019-03-01T07:54:08.282Z,10.10
2019-03-01T07:56:39.527Z,9.90
2019-03-01T07:59:06.962Z,9.80
2019-03-01T08:01:35.537Z,9.60
2019-03-01T08:04:04.035Z,9.60
2019-03-01T08:06:32.492Z,9.60
2019-03-01T08:09:00.929Z,9.60
2019-03-01T08:11:31.812Z,9.60
2019-03-01T08:14:02.643Z,9.60
2019-03-01T08:16:44.192Z,9.60
2019-03-01T08:19:12.184Z,9.60
2019-03-01T08:21:45.870Z,9.60
2019-03-01T08:24:13.479Z,9.60
2019-03-01T08:26:41.992Z,9.60
2019-03-01T08:29:10.651Z,9.70
2019-03-01T08:31:39.132Z,9.80
2019-03-01T08:34:07.761Z,9.70
2019-03-01T08:36:38.557Z,9.90
2019-03-01T08:39:07.547Z,10.00
2019-03-01T08:41:35.992Z,10.10
2019-03-01T08:44:04.606Z,10.10
2019-03-01T08:46:33.046Z,10.30
2019-03-01T08:49:01.600Z,10.30
2019-03-01T08:51:30.187Z,10.20
2019-03-01T08:53:58.624Z,10.00
2019-03-01T08:56:27.050Z,10.10
2019-03-01T08:58:55.502Z,10.00
2019-03-01T09:01:25.576Z,10.00
2019-03-01T09:04:00.024Z,10.00
2019-03-01T09:06:28.453Z,9.90
2019-03-01T09:08:56.893Z,10.10
2019-03-01T09:11:25.329Z,10.10
2019-03-01T09:13:53.781Z,10.20
2019-03-01T09:16:22.221Z,10.10
2019-03-01T09:18:50.961Z,10.00
2019-03-01T09:21:19.479Z,10.00
2019-03-01T09:23:51.111Z,10.00
2019-03-01T09:26:19.929Z,10.10
2019-03-01T09:28:48.265Z,10.10
2019-03-01T09:31:16.696Z,10.10
2019-03-01T09:33:45.147Z,10.10
2019-03-01T09:36:17.827Z,10.10
2019-03-01T09:38:45.398Z,10.30
2019-03-01T09:41:13.842Z,10.40
2019-03-01T09:43:42.293Z,10.30
2019-03-01T09:46:10.801Z,10.40
2019-03-01T09:48:39.254Z,10.40
2019-03-01T09:51:10.742Z,10.40
2019-03-01T09:53:37.875Z,10.50
2019-03-01T09:56:06.373Z,10.40
2019-03-01T09:58:34.822Z,10.50
2019-03-01T10:01:06.577Z,10.50
2019-03-01T10:03:35.026Z,10.50
2019-03-01T10:06:03.464Z,10.70
2019-03-01T10:08:31.906Z,10.70
2019-03-01T10:11:00.409Z,10.60
2019-03-01T10:13:30.360Z,10.50
2019-03-01T10:15:59.037Z,10.50
2019-03-01T10:18:27.496Z,10.50
2019-03-01T10:20:55.941Z,10.60
2019-03-01T10:23:24.393Z,10.50
2019-03-01T10:25:52.833Z,10.40
2019-03-01T10:28:21.279Z,10.40
2019-03-01T10:30:49.733Z,10.50
2019-03-01T10:33:18.173Z,10.50
2019-03-01T10:35:46.620Z,10.50
2019-03-01T10:38:15.066Z,10.60
2019-03-01T10:40:43.521Z,10.50
2019-03-01T10:43:11.948Z,10.60
2019-03-01T10:45:40.403Z,10.50
2019-03-01T10:48:08.841Z,10.50
2019-03-01T10:50:37.313Z,10.50
2019-03-01T10:53:05.826Z,10.50
2019-03-01T10:55:34.374Z,10.40
2019-03-01T10:58:02.820Z,10.40
2019-03-01T11:00:32.005Z,10.50
2019-03-01T11:03:00.443Z,10.50
2019-03-01T11:05:28.932Z,10.60
2019-03-01T11:07:57.516Z,10.60
2019-03-01T11:10:31.338Z,10.60
2019-03-01T11:12:59.775Z,10.60
2019-03-01T11:15:28.220Z,10.80
2019-03-01T11:17:56.655Z,10.80
2019-03-01T11:20:25.245Z,10.90
2019-03-01T11:22:53.695Z,11.00
2019-03-01T11:25:23.676Z,11.10
2019-03-01T11:27:52.191Z,11.00
2019-03-01T11:30:31.601Z,10.80
2019-03-01T11:33:00.112Z,10.70
2019-03-01T11:35:28.560Z,10.90
2019-03-01T11:37:57.014Z,10.80
2019-03-01T11:40:30.648Z,10.80
2019-03-01T11:42:59.156Z,10.90
2019-03-01T11:45:27.680Z,10.90
2019-03-01T11:47:56.127Z,11.00
2019-03-01T11:50:25.309Z,11.00
2019-03-01T11:52:53.919Z,11.00
2019-03-01T11:55:22.372Z,11.00
2019-03-01T11:57:50.867Z,11.00
2019-03-01T12:00:24.980Z,11.10
2019-03-01T12:02:53.862Z,11.10
2019-03-01T12:05:22.476Z,11.20
2019-03-01T12:07:50.912Z,11.40
2019-03-01T12:10:30.207Z,11.20
2019-03-01T12:12:58.645Z,11.30
2019-03-01T12:15:27.084Z,11.20
2019-03-01T12:17:55.528Z,11.30
2019-03-01T12:20:28.789Z,11.20
2019-03-01T12:22:57.217Z,11.20
2019-03-01T12:25:25.672Z,11.10
2019-03-01T12:27:54.109Z,11.20
2019-03-01T12:30:25.059Z,11.20
2019-03-01T12:32:53.501Z,11.10
2019-03-01T12:35:21.939Z,11.00
2019-03-01T12:37:50.445Z,10.90
2019-03-01T12:40:26.922Z,11.00
2019-03-01T12:42:55.360Z,10.80
2019-03-01T12:45:23.827Z,10.60
2019-03-01T12:47:52.259Z,10.60
2019-03-01T12:50:20.717Z,10.70
2019-03-01T12:52:49.605Z,10.70
2019-03-01T12:55:22.939Z,10.80
2019-03-01T12:57:51.369Z,10.80
2019-03-01T13:00:22.528Z,10.80
2019-03-01T13:02:51.062Z,10.80
2019-03-01T13:05:19.506Z,10.80
2019-03-01T13:07:47.932Z,10.80
2019-03-01T13:10:19.204Z,10.90
2019-03-01T13:12:47.640Z,11.00
2019-03-01T13:15:16.095Z,11.20
2019-03-01T13:17:44.531Z,11.20
2019-03-01T13:20:17.393Z,11.20
2019-03-01T13:22:45.834Z,11.30
2019-03-01T13:25:15.707Z,11.20
2019-03-01T13:27:44.280Z,11.20
2019-03-01T13:30:26.298Z,11.10
2019-03-01T13:32:55.170Z,11.10
2019-03-01T13:35:26.128Z,10.60
2019-03-01T13:37:55.579Z,10.40
2019-03-01T13:40:25.277Z,10.10
2019-03-01T13:42:54.023Z,10.20
2019-03-01T13:45:26.074Z,10.30
2019-03-01T13:48:15.720Z,10.30
2019-03-01T13:50:44.021Z,10.20
2019-03-01T13:53:12.440Z,10.20
2019-03-01T13:55:40.890Z,10.30
2019-03-01T13:58:09.320Z,10.40
2019-03-01T14:00:37.835Z,10.10
2019-03-01T14:03:06.284Z,10.00
2019-03-01T14:05:34.719Z,10.10
2019-03-01T14:08:08.912Z,10.20
2019-03-01T14:10:33.343Z,10.20
2019-03-01T14:13:01.795Z,10.20
2019-03-01T14:15:30.300Z,10.30
2019-03-01T14:18:01.276Z,10.50
2019-03-01T14:20:28.932Z,10.60
2019-03-01T14:22:57.372Z,10.40
2019-03-01T14:25:25.808Z,10.70
2019-03-01T14:27:54.251Z,10.60
2019-03-01T14:30:31.144Z,10.50
2019-03-01T14:32:58.443Z,10.50
2019-03-01T14:35:27.282Z,10.40
2019-03-01T14:37:55.888Z,10.50
2019-03-01T14:40:24.537Z,10.50
2019-03-01T14:43:12.432Z,10.40
2019-03-01T14:45:41.712Z,10.40
2019-03-01T14:48:11.034Z,10.30
2019-03-01T14:50:39.501Z,10.20
2019-03-01T14:53:07.950Z,10.20
2019-03-01T14:55:51.415Z,10.20
2019-03-01T14:58:25.677Z,10.00
2019-03-01T15:01:32.931Z,9.90
2019-03-01T15:04:01.367Z,10.00
2019-03-01T15:06:29.833Z,10.10
2019-03-01T15:08:58.273Z,10.00
2019-03-01T15:11:32.777Z,10.00
2019-03-01T15:14:01.228Z,10.00
2019-03-01T15:16:29.663Z,9.90
2019-03-01T15:18:58.112Z,9.90
2019-03-01T15:21:26.574Z,9.80
2019-03-01T15:23:56.210Z,9.90
2019-03-01T15:26:26.790Z,9.80
2019-03-01T15:28:56.017Z,9.80
2019-03-01T15:31:24.559Z,9.70
2019-03-01T15:33:53.008Z,9.70
2019-03-01T15:36:21.449Z,9.80
2019-03-01T15:38:49.885Z,9.80
2019-03-01T15:41:18.834Z,10.00
2019-03-01T15:43:47.262Z,9.90
2019-03-01T15:46:17.741Z,9.70
2019-03-01T15:48:45.916Z,9.60
2019-03-01T15:51:14.449Z,9.60
2019-03-01T15:53:42.897Z,9.50
2019-03-01T15:56:30.671Z,9.60
2019-03-01T15:58:59.120Z,9.70
2019-03-01T16:01:27.570Z,9.60
2019-03-01T16:03:57.165Z,9.60
2019-03-01T16:06:26.185Z,9.40
2019-03-01T16:08:54.645Z,9.30
2019-03-01T16:11:23.107Z,9.30
2019-03-01T16:13:51.553Z,9.30
2019-03-01T16:16:20.060Z,9.20
2019-03-01T16:18:48.492Z,9.20
2019-03-01T16:21:16.937Z,9.10
2019-03-01T16:23:45.388Z,9.10
2019-03-01T16:26:13.826Z,9.10
2019-03-01T16:28:42.277Z,9.10
2019-03-01T16:31:10.725Z,9.10
2019-03-01T16:33:39.183Z,9.00
2019-03-01T16:36:09.267Z,9.00
2019-03-01T16:38:40.905Z,9.10
2019-03-01T16:41:08.518Z,9.10
2019-03-01T16:43:37.096Z,9.00
2019-03-01T16:46:05.537Z,9.10
2019-03-01T16:48:33.977Z,9.00
2019-03-01T16:51:02.415Z,8.90
2019-03-01T16:53:30.864Z,8.70
2019-03-01T16:56:02.356Z,8.70
2019-03-01T16:58:29.520Z,8.60
2019-03-01T17:00:57.960Z,8.50
2019-03-01T17:03:26.427Z,8.50
2019-03-01T17:05:55.157Z,8.40
2019-03-01T17:08:23.809Z,8.40
2019-03-01T17:10:52.284Z,8.40
2019-03-01T17:13:23.619Z,8.20
2019-03-01T17:15:50.902Z,8.20
2019-03-01T17:18:19.361Z,8.20
2019-03-01T17:20:47.794Z,8.10
2019-03-01T17:23:16.254Z,8.10
2019-03-01T17:25:44.702Z,8.20
2019-03-01T17:28:13.151Z,8.10
2019-03-01T17:30:41.581Z,8.10
2019-03-01T17:33:12.752Z,8.00
2019-03-01T17:35:40.941Z,8.10
2019-03-01T17:38:10.308Z,7.90
2019-03-01T17:40:38.734Z,7.90
2019-03-01T17:43:07.186Z,7.80
2019-03-01T17:45:35.623Z,7.80
2019-03-01T17:48:04.068Z,7.60
2019-03-01T17:50:32.501Z,7.50
2019-03-01T17:53:00.953Z,7.40
2019-03-01T17:55:29.397Z,7.30
2019-03-01T17:57:57.854Z,7.30
2019-03-01T18:00:37.916Z,7.30
2019-03-01T18:03:06.500Z,7.30
2019-03-01T18:05:37.065Z,7.10
2019-03-01T18:08:05.128Z,7.10
2019-03-01T18:10:33.672Z,7.10
2019-03-01T18:13:02.122Z,7.00
2019-03-01T18:15:30.553Z,6.90
2019-03-01T18:17:59.068Z,6.80
2019-03-01T18:20:27.522Z,6.80
2019-03-01T18:22:59.328Z,6.70
2019-03-01T18:25:27.138Z,6.70
2019-03-01T18:27:55.810Z,6.80
2019-03-01T18:30:34.632Z,6.70
2019-03-01T18:33:03.079Z,6.70
2019-03-01T18:35:31.510Z,6.60
2019-03-01T18:37:59.944Z,6.60
2019-03-01T18:40:28.384Z,6.50
2019-03-01T18:42:56.896Z,6.50
2019-03-01T18:45:27.243Z,6.60
2019-03-01T18:47:55.680Z,6.60
2019-03-01T18:50:31.195Z,6.50
2019-03-01T18:53:03.448Z,6.60
2019-03-01T18:55:31.436Z,6.70
2019-03-01T18:58:00.023Z,6.80
2019-03-01T19:00:40.164Z,6.90
2019-03-01T19:03:08.609Z,6.80
2019-03-01T19:05:40.226Z,6.90
2019-03-01T19:08:07.344Z,6.80
2019-03-01T19:10:36.405Z,6.70
2019-03-01T19:13:05.303Z,6.80
2019-03-01T19:15:34.065Z,6.80
2019-03-01T19:18:02.577Z,6.80
2019-03-01T19:20:41.433Z,6.80
2019-03-01T19:23:09.593Z,6.80
2019-03-01T19:25:38.025Z,6.80
2019-03-01T19:28:06.468Z,6.80
2019-03-01T19:30:34.902Z,6.80
2019-03-01T19:33:03.539Z,6.80
2019-03-01T19:35:31.969Z,6.70
2019-03-01T19:38:00.414Z,6.60
2019-03-01T19:40:29.015Z,6.60
2019-03-01T19:42:57.616Z,6.60
2019-03-01T19:45:26.096Z,6.70
2019-03-01T19:47:54.542Z,6.80
2019-03-01T19:50:25.999Z,6.90
2019-03-01T19:52:54.629Z,7.00
2019-03-01T19:55:23.051Z,6.90
2019-03-01T19:57:51.492Z,6.80
2019-03-01T20:00:25.204Z,6.70
2019-03-01T20:02:53.653Z,6.70
2019-03-01T20:05:45.657Z,6.60
2019-03-01T20:08:14.105Z,6.60
2019-03-01T20:10:42.545Z,6.60
2019-03-01T20:13:13.078Z,6.60
2019-03-01T20:15:42.787Z,6.60
2019-03-01T20:18:11.329Z,6.60
2019-03-01T20:20:39.784Z,6.70
2019-03-01T20:23:08.243Z,6.80
2019-03-01T20:25:36.678Z,6.80
2019-03-01T20:28:05.112Z,6.70
2019-03-01T20:30:33.918Z,6.60
2019-03-01T20:33:02.361Z,6.60
2019-03-01T20:35:30.886Z,6.50
2019-03-01T20:38:00.278Z,6.40
2019-03-01T20:40:29.495Z,6.50
2019-03-01T20:43:01.214Z,6.60
2019-03-01T20:45:34.736Z,6.40
2019-03-01T20:48:03.226Z,6.40
2019-03-01T20:50:31.669Z,6.30
2019-03-01T20:53:00.101Z,6.30
2019-03-01T20:55:28.543Z,6.30
2019-03-01T20:57:59.703Z,6.20
2019-03-01T21:00:29.808Z,6.30
2019-03-01T21:02:58.149Z,6.20
2019-03-01T21:05:28.995Z,6.30
2019-03-01T21:07:56.748Z,6.30
2019-03-01T21:10:29.889Z,6.30
2019-03-01T21:12:58.337Z,6.30
2019-03-01T21:15:26.786Z,6.30
2019-03-01T21:17:56.932Z,6.40
2019-03-01T21:20:25.644Z,6.40
2019-03-01T21:22:54.082Z,6.50
2019-03-01T21:25:23.663Z,6.40
2019-03-01T21:27:52.101Z,6.20
2019-03-01T21:30:27.901Z,6.20
2019-03-01T21:32:56.411Z,6.30
2019-03-01T21:35:24.865Z,6.10
2019-03-01T21:37:53.536Z,6.20
2019-03-01T21:40:21.975Z,6.10
2019-03-01T21:42:52.773Z,5.90
2019-03-01T21:45:24.538Z,6.00
2019-03-01T21:47:53.043Z,6.10
2019-03-01T21:50:21.493Z,6.10
2019-03-01T21:52:49.993Z,6.00
2019-03-01T21:55:19.968Z,6.00
2019-03-01T21:57:48.420Z,6.00
2019-03-01T22:00:25.265Z,6.10
2019-03-01T22:02:52.976Z,6.00
2019-03-01T22:05:22.690Z,6.00
2019-03-01T22:07:51.201Z,6.20
2019-03-01T22:10:19.635Z,6.20
2019-03-01T22:12:48.064Z,6.00
2019-03-01T22:15:25.511Z,6.00
2019-03-01T22:17:54.780Z,6.10
2019-03-01T22:20:23.600Z,6.10
2019-03-01T22:22:52.025Z,6.10
2019-03-01T22:25:20.474Z,6.10
2019-03-01T22:27:48.913Z,6.00
2019-03-01T22:30:33.787Z,6.00
2019-03-01T22:33:02.228Z,5.90
2019-03-01T22:35:30.687Z,5.90
2019-03-01T22:38:01.094Z,5.90
2019-03-01T22:40:29.569Z,5.90
2019-03-01T22:42:58.086Z,5.90
2019-03-01T22:45:26.528Z,5.90
2019-03-01T22:47:54.959Z,5.90
2019-03-01T22:50:23.388Z,5.90
2019-03-01T22:52:51.845Z,6.00
2019-03-01T22:55:21.180Z,5.90
2019-03-01T22:57:49.686Z,5.80
2019-03-01T23:00:31.821Z,5.70
2019-03-01T23:03:00.333Z,5.60
2019-03-01T23:05:28.767Z,5.50
2019-03-01T23:08:00.209Z,5.40
2019-03-01T23:10:27.938Z,5.30
2019-03-01T23:12:56.394Z,5.40
2019-03-01T23:15:24.888Z,5.50
2019-03-01T23:17:53.349Z,5.40
2019-03-01T23:20:26.127Z,5.30
2019-03-01T23:22:51.947Z,5.50
2019-03-01T23:25:20.398Z,5.40
2019-03-01T23:27:49.218Z,5.30
2019-03-01T23:30:18.012Z,5.30
2019-03-01T23:32:48.769Z,5.30
2019-03-01T23:35:18.140Z,5.30
2019-03-01T23:37:46.916Z,5.30
2019-03-01T23:40:16.108Z,5.30
2019-03-01T23:42:44.564Z,5.30
2019-03-01T23:45:13.794Z,5.30
2019-03-01T23:47:43.226Z,5.10
2019-03-01T23:50:11.664Z,5.10
2019-03-01T23:52:40.117Z,5.10
2019-03-01T23:55:08.813Z,5.20
2019-03-01T23:57:38.009Z,5.20
